Time;durP1;ratioP1;P1;durP2;ratioP2;P2;SDS_P1;SDS_P2;PMS_P1;PMS_P2;Temp;Humidity;BMP_temperature;BMP_pressure;BME280_temperature;BME280_humidity;BME280_pressure;Samples;Min_cycle;Max_cycle;Signal;HPM_P1;HPM_P2
2022/04/17 00:00:28;;;;;;;15.63;8.68;;;;;;;;;;5003040;28;19941;-64
2022/04/17 00:02:54;;;;;;;18.63;8.57;;;;;;;;;;5008243;28;20058;-64
2022/04/17 00:05:20;;;;;;;17.48;8.82;;;;;;;;;;5008368;28;20143;-67
2022/04/17 00:07:48;;;;;;;16.88;9.05;;;;;;;;;;5008741;28;20159;-63
2022/04/17 00:10:14;;;;;;;16.55;9.02;;;;;;;;;;5006238;28;20056;-63
2022/04/17 00:12:41;;;;;;;15.13;8.57;;;;;;;;;;5005336;28;20165;-67
2022/04/17 00:15:10;;;;;;;17.15;8.82;;;;;;;;;;5008019;28;20050;-62
2022/04/17 00:17:41;;;;;;;18.95;8.82;;;;;;;;;;5008916;28;20452;-63
2022/04/17 00:20:08;;;;;;;15.82;8.90;;;;;;;;;;5008860;28;20103;-63
2022/04/17 00:22:35;;;;;;;14.13;8.43;;;;;;;;;;5001250;28;20072;-65
2022/04/17 00:25:01;;;;;;;16.20;9.68;;;;;;;;;;5005582;28;20069;-63
2022/04/17 00:27:27;;;;;;;16.25;9.07;;;;;;;;;;5008709;28;20068;-64
2022/04/17 00:29:57;;;;;;;16.13;8.52;;;;;;;;;;5008607;28;20050;-63
2022/04/17 00:32:26;;;;;;;19.35;9.13;;;;;;;;;;5006141;28;20050;-64
2022/04/17 00:34:52;;;;;;;16.48;9.27;;;;;;;;;;5008314;28;20042;-63
2022/04/17 00:37:18;;;;;;;15.90;8.68;;;;;;;;;;5007752;28;20057;-63
2022/04/17 00:39:44;;;;;;;15.20;9.05;;;;;;;;;;5008405;28;20462;-63
2022/04/17 00:42:10;;;;;;;16.23;8.98;;;;;;;;;;5009593;28;20446;-63
2022/04/17 00:44:37;;;;;;;17.20;9.27;;;;;;;;;;5007538;28;20128;-63
2022/04/17 00:47:04;;;;;;;16.92;9.32;;;;;;;;;;5008101;28;20266;-63
2022/04/17 00:49:30;;;;;;;15.23;9.05;;;;;;;;;;5005074;28;20057;-63
2022/04/17 00:51:56;;;;;;;15.00;8.82;;;;;;;;;;5007621;28;20094;-62
2022/04/17 00:54:22;;;;;;;;;;;;;;;;;;4997593;28;20084;-63
2022/04/17 00:56:49;;;;;;;16.70;9.48;;;;;;;;;;5005478;28;19925;-66
2022/04/17 00:59:15;;;;;;;15.95;9.27;;;;;;;;;;5002899;28;20187;-63
2022/04/17 01:01:42;;;;;;;15.38;8.95;;;;;;;;;;5007448;28;20062;-63
2022/04/17 01:04:09;;;;;;;15.20;8.43;;;;;;;;;;5004852;28;20083;-63
2022/04/17 01:06:35;;;;;;;15.82;8.80;;;;;;;;;;5008694;28;20133;-63
2022/04/17 01:09:02;;;;;;;17.08;8.77;;;;;;;;;;5007244;28;20170;-62
2022/04/17 01:11:28;;;;;;;15.38;8.75;;;;;;;;;;5004823;28;20180;-66
2022/04/17 01:13:55;;;;;;;15.52;8.30;;;;;;;;;;5007167;28;20042;-63
2022/04/17 01:16:24;;;;;;;16.85;9.43;;;;;;;;;;5009367;28;20115;-63
2022/04/17 01:19:00;;;;;;;15.77;8.80;;;;;;;;;;5003772;28;20378;-63
2022/04/17 01:21:27;;;;;;;17.50;9.02;;;;;;;;;;5003654;28;20514;-63
2022/04/17 01:26:56;;;;;;;14.93;8.65;;;;;;;;;;5007226;28;20113;-63
2022/04/17 01:29:23;;;;;;;15.20;8.70;;;;;;;;;;5004972;28;20046;-66
2022/04/17 01:31:49;;;;;;;14.85;8.95;;;;;;;;;;5006254;28;20279;-62
2022/04/17 01:34:16;;;;;;;14.93;8.50;;;;;;;;;;5006420;28;20113;-62
2022/04/17 01:36:45;;;;;;;16.15;9.13;;;;;;;;;;5006662;28;20124;-64
2022/04/17 01:39:12;;;;;;;14.93;8.43;;;;;;;;;;5005213;28;20124;-63
2022/04/17 01:41:38;;;;;;;15.38;8.75;;;;;;;;;;5005232;28;20049;-63
2022/04/17 01:44:04;;;;;;;14.27;8.45;;;;;;;;;;5008119;28;20038;-63
2022/04/17 01:46:30;;;;;;;;;;;;;;;;;;5006835;28;20106;-67
2022/04/17 01:48:56;;;;;;;15.35;9.18;;;;;;;;;;5007728;28;20381;-63
2022/04/17 01:51:23;;;;;;;14.40;8.43;;;;;;;;;;5006913;28;20133;-63
2022/04/17 01:53:49;;;;;;;16.50;9.00;;;;;;;;;;5005460;28;20110;-63
2022/04/17 01:56:17;;;;;;;17.23;8.88;;;;;;;;;;5006009;28;20094;-63
2022/04/17 01:58:43;;;;;;;16.02;8.73;;;;;;;;;;5003782;28;20049;-65
2022/04/17 02:01:09;;;;;;;17.48;8.95;;;;;;;;;;5005638;28;20357;-63
2022/04/17 02:03:35;;;;;;;14.27;8.68;;;;;;;;;;5004076;28;20105;-63
2022/04/17 02:06:01;;;;;;;15.05;8.88;;;;;;;;;;5008099;28;20128;-63
2022/04/17 02:08:31;;;;;;;16.95;8.82;;;;;;;;;;5002903;28;20128;-64
2022/04/17 02:10:57;;;;;;;15.60;8.80;;;;;;;;;;5005615;28;20129;-63
2022/04/17 02:13:23;;;;;;;14.60;8.82;;;;;;;;;;5004800;28;20087;-63
2022/04/17 02:15:53;;;;;;;14.30;8.82;;;;;;;;;;5006314;28;20159;-63
2022/04/17 02:18:25;;;;;;;14.48;8.70;;;;;;;;;;5005899;28;20144;-63
2022/04/17 02:20:51;;;;;;;15.63;9.00;;;;;;;;;;5007654;28;20073;-63
2022/04/17 02:23:18;;;;;;;16.35;8.88;;;;;;;;;;5006512;28;20086;-63
2022/04/17 02:25:44;;;;;;;16.80;9.43;;;;;;;;;;5003705;28;20141;-63
2022/04/17 02:28:10;;;;;;;15.85;8.90;;;;;;;;;;5001069;28;20148;-64
2022/04/17 02:30:36;;;;;;;16.90;9.60;;;;;;;;;;5005271;28;20489;-66
2022/04/17 02:33:02;;;;;;;14.70;9.05;;;;;;;;;;5006885;28;20124;-62
2022/04/17 02:35:29;;;;;;;15.48;9.45;;;;;;;;;;5003209;28;20355;-61
2022/04/17 02:37:55;;;;;;;16.17;9.98;;;;;;;;;;5006100;28;20323;-63
2022/04/17 02:40:21;;;;;;;15.13;9.48;;;;;;;;;;5004582;28;20482;-61
2022/04/17 02:42:53;;;;;;;15.82;9.50;;;;;;;;;;5006883;28;20873;-62
2022/04/17 02:45:22;;;;;;;16.27;9.98;;;;;;;;;;5004083;28;20120;-64
2022/04/17 02:47:50;;;;;;;16.80;9.20;;;;;;;;;;5007560;28;20077;-62
2022/04/17 02:50:17;;;;;;;17.00;9.70;;;;;;;;;;5006572;28;20054;-62
2022/04/17 02:52:43;;;;;;;16.90;9.48;;;;;;;;;;5005164;28;20064;-62
2022/04/17 02:55:10;;;;;;;18.95;10.05;;;;;;;;;;5005445;28;20457;-62
2022/04/17 02:57:37;;;;;;;18.50;10.23;;;;;;;;;;5007644;28;20152;-61
2022/04/17 03:00:03;;;;;;;;;;;;;;;;;;5005504;28;20085;-62
2022/04/17 03:07:59;;;;;;;18.15;10.85;;;;;;;;;;5001844;28;20505;-61
2022/04/17 03:10:25;;;;;;;18.77;10.85;;;;;;;;;;5006974;28;20057;-61
2022/04/17 03:12:51;;;;;;;18.73;11.27;;;;;;;;;;5005670;28;20113;-62
2022/04/17 03:15:17;;;;;;;16.80;11.02;;;;;;;;;;5005362;28;20470;-63
2022/04/17 03:17:43;;;;;;;19.75;12.15;;;;;;;;;;5004065;28;20145;-62
2022/04/17 03:20:10;;;;;;;21.25;12.10;;;;;;;;;;5007503;28;20050;-62
2022/04/17 03:22:36;;;;;;;;;;;;;;;;;;5006295;28;20146;-62
2022/04/17 03:25:04;;;;;;;19.90;12.10;;;;;;;;;;5004367;28;20004;-65
2022/04/17 03:27:30;;;;;;;17.75;11.65;;;;;;;;;;5000569;28;20140;-62
2022/04/17 03:29:56;;;;;;;21.05;12.23;;;;;;;;;;5002437;28;20133;-62
2022/04/17 03:32:22;;;;;;;21.45;12.38;;;;;;;;;;5008173;28;20046;-61
2022/04/17 03:34:48;;;;;;;20.63;11.93;;;;;;;;;;5001075;28;20503;-62
2022/04/17 03:37:15;;;;;;;18.80;12.38;;;;;;;;;;5007494;28;20099;-62
2022/04/17 03:39:41;;;;;;;20.15;12.43;;;;;;;;;;5005429;28;20501;-62
2022/04/17 03:42:07;;;;;;;;;;;;;;;;;;5010961;28;20105;-62
2022/04/17 03:44:33;;;;;;;20.02;12.02;;;;;;;;;;5007066;28;19929;-62
2022/04/17 03:47:00;;;;;;;19.25;12.82;;;;;;;;;;5011223;28;20050;-62
2022/04/17 03:49:26;;;;;;;;;;;;;;;;;;5008789;28;20200;-62
2022/04/17 03:51:52;;;;;;;19.95;13.00;;;;;;;;;;5009775;28;20269;-61
2022/04/17 03:54:19;;;;;;;21.23;13.43;;;;;;;;;;5006085;28;20045;-62
2022/04/17 03:56:46;;;;;;;22.45;13.52;;;;;;;;;;5007571;28;20050;-64
2022/04/17 03:59:12;;;;;;;22.20;13.27;;;;;;;;;;5007314;28;20049;-61
2022/04/17 04:01:38;;;;;;;22.55;13.30;;;;;;;;;;5009477;28;20365;-61
2022/04/17 04:04:07;;;;;;;20.98;13.45;;;;;;;;;;5007817;28;20046;-62
2022/04/17 04:06:34;;;;;;;19.13;12.80;;;;;;;;;;5008964;28;20113;-62
2022/04/17 04:09:00;;;;;;;21.38;13.75;;;;;;;;;;5008666;28;20104;-62
2022/04/17 04:11:26;;;;;;;23.13;14.10;;;;;;;;;;5010055;28;20152;-62
2022/04/17 04:13:54;;;;;;;20.35;13.57;;;;;;;;;;5006698;28;20053;-62
2022/04/17 04:16:20;;;;;;;23.27;13.38;;;;;;;;;;5005240;28;20082;-61
2022/04/17 04:18:46;;;;;;;22.15;13.10;;;;;;;;;;5005530;28;20065;-62
2022/04/17 04:21:12;;;;;;;22.30;13.35;;;;;;;;;;5009130;28;20120;-62
2022/04/17 04:23:39;;;;;;;21.08;13.23;;;;;;;;;;5008389;28;20046;-61
2022/04/17 04:26:05;;;;;;;19.67;13.57;;;;;;;;;;5008091;28;20052;-61
2022/04/17 04:28:38;;;;;;;21.58;13.95;;;;;;;;;;5005015;28;20083;-62
2022/04/17 04:31:07;;;;;;;20.73;13.93;;;;;;;;;;5009475;28;20046;-61
2022/04/17 04:33:34;;;;;;;23.17;14.30;;;;;;;;;;5007876;28;20124;-64
2022/04/17 04:36:01;;;;;;;21.25;14.10;;;;;;;;;;4993805;28;20513;-61
2022/04/17 04:38:27;;;;;;;22.98;14.15;;;;;;;;;;5007134;28;20107;-62
2022/04/17 04:40:54;;;;;;;20.55;13.65;;;;;;;;;;5007488;28;20194;-63
2022/04/17 04:43:21;;;;;;;20.20;14.02;;;;;;;;;;5008560;28;20053;-61
2022/04/17 04:51:16;;;;;;;21.45;13.88;;;;;;;;;;5009408;28;20053;-66
2022/04/17 04:53:42;;;;;;;22.15;13.95;;;;;;;;;;5006626;28;20116;-64
2022/04/17 04:56:09;;;;;;;24.10;14.90;;;;;;;;;;5007479;28;20046;-62
2022/04/17 04:58:35;;;;;;;21.80;14.73;;;;;;;;;;5007660;28;20482;-63
2022/04/17 05:01:01;;;;;;;22.77;14.30;;;;;;;;;;4991263;28;20102;-63
2022/04/17 05:03:27;;;;;;;22.17;15.23;;;;;;;;;;5005829;28;20065;-62
2022/04/17 05:05:53;;;;;;;22.17;14.15;;;;;;;;;;5003129;28;20042;-66
2022/04/17 05:08:19;;;;;;;22.65;14.98;;;;;;;;;;5006390;28;20045;-64
2022/04/17 05:10:46;;;;;;;23.65;15.23;;;;;;;;;;5004758;28;20045;-64
2022/04/17 05:13:12;;;;;;;23.08;15.27;;;;;;;;;;5004605;28;20042;-63
2022/04/17 05:15:38;;;;;;;25.17;16.13;;;;;;;;;;5006982;28;20476;-66
2022/04/17 05:18:04;;;;;;;25.80;16.70;;;;;;;;;;5002272;28;20069;-63
2022/04/17 05:20:34;;;;;;;24.90;16.88;;;;;;;;;;5008918;28;20061;-63
2022/04/17 05:23:18;;;;;;;25.13;16.50;;;;;;;;;;5006396;28;20080;-63
2022/04/17 05:25:47;;;;;;;24.70;16.30;;;;;;;;;;4989158;28;20070;-62
2022/04/17 05:28:14;;;;;;;23.38;15.90;;;;;;;;;;4999272;28;20057;-63
2022/04/17 05:30:41;;;;;;;24.55;16.55;;;;;;;;;;5007359;28;20050;-63
2022/04/17 05:33:10;;;;;;;22.85;15.90;;;;;;;;;;5005222;28;20050;-63
2022/04/17 05:35:36;;;;;;;25.63;16.33;;;;;;;;;;5004288;28;20054;-63
2022/04/17 05:38:02;;;;;;;25.55;15.88;;;;;;;;;;5001971;28;20045;-64
2022/04/17 05:40:29;;;;;;;24.33;17.73;;;;;;;;;;5001288;28;20113;-64
2022/04/17 05:42:58;;;;;;;28.35;19.83;;;;;;;;;;5005697;28;20563;-67
2022/04/17 05:45:24;;;;;;;27.13;16.85;;;;;;;;;;5007767;28;20129;-63
2022/04/17 05:47:53;;;;;;;29.95;21.67;;;;;;;;;;5004965;28;20050;-64
2022/04/17 05:50:19;;;;;;;33.78;21.17;;;;;;;;;;5004242;28;20185;-63
2022/04/17 05:52:46;;;;;;;28.77;19.20;;;;;;;;;;5005674;28;20446;-63
2022/04/17 05:55:14;;;;;;;25.17;17.67;;;;;;;;;;5005602;28;20064;-64
2022/04/17 05:57:40;;;;;;;24.25;17.08;;;;;;;;;;5005637;28;20054;-63
2022/04/17 06:00:08;;;;;;;29.90;19.95;;;;;;;;;;5002412;28;20046;-63
2022/04/17 06:02:38;;;;;;;26.17;18.20;;;;;;;;;;5005993;28;20053;-63
2022/04/17 06:05:04;;;;;;;26.00;17.35;;;;;;;;;;5005762;28;20456;-64
2022/04/17 06:07:30;;;;;;;27.67;18.20;;;;;;;;;;5006376;28;20068;-64
2022/04/17 06:09:56;;;;;;;28.90;16.83;;;;;;;;;;5005684;28;20446;-64
2022/04/17 06:12:22;;;;;;;26.83;16.92;;;;;;;;;;5004393;28;20077;-64
2022/04/17 06:14:48;;;;;;;25.15;17.13;;;;;;;;;;5001220;28;20057;-66
2022/04/17 06:17:14;;;;;;;24.10;15.27;;;;;;;;;;5001822;28;20076;-65
2022/04/17 06:19:41;;;;;;;26.88;15.82;;;;;;;;;;5001333;28;20157;-65
2022/04/17 06:22:10;;;;;;;;;;;;;;;;;;5001662;28;20438;-65
2022/04/17 06:24:36;;;;;;;26.80;16.48;;;;;;;;;;5003631;28;20339;-65
2022/04/17 06:27:02;;;;;;;24.40;15.52;;;;;;;;;;4997980;28;20463;-66
2022/04/17 06:29:30;;;;;;;24.25;15.35;;;;;;;;;;5005429;28;20148;-64
2022/04/17 06:31:56;;;;;;;22.38;15.52;;;;;;;;;;5003581;28;20049;-63
2022/04/17 06:34:22;;;;;;;25.00;16.42;;;;;;;;;;5004270;28;20038;-63
2022/04/17 06:36:48;;;;;;;22.40;15.82;;;;;;;;;;5005517;28;20112;-62
2022/04/17 06:39:14;;;;;;;24.25;15.27;;;;;;;;;;5005787;28;20112;-64
2022/04/17 06:41:40;;;;;;;23.63;16.13;;;;;;;;;;5007096;28;20042;-63
2022/04/17 06:44:06;;;;;;;25.27;15.95;;;;;;;;;;5003150;28;20037;-71
2022/04/17 06:46:33;;;;;;;26.50;16.05;;;;;;;;;;5005431;28;20534;-63
2022/04/17 06:48:59;;;;;;;23.83;16.30;;;;;;;;;;5004243;28;20054;-62
2022/04/17 06:51:25;;;;;;;22.33;15.95;;;;;;;;;;5002653;28;20220;-63
2022/04/17 06:53:55;;;;;;;24.45;16.17;;;;;;;;;;5007251;28;20545;-63
2022/04/17 06:56:21;;;;;;;25.40;15.20;;;;;;;;;;5002691;28;20160;-62
2022/04/17 06:58:47;;;;;;;25.75;16.73;;;;;;;;;;5006991;28;20068;-65
2022/04/17 07:01:14;;;;;;;25.42;16.77;;;;;;;;;;5003500;28;20111;-64
2022/04/17 07:03:41;;;;;;;24.40;15.77;;;;;;;;;;5004600;28;20062;-65
2022/04/17 07:06:07;;;;;;;25.88;16.42;;;;;;;;;;5001492;28;20045;-64
2022/04/17 07:08:33;;;;;;;27.98;17.02;;;;;;;;;;5002641;28;20446;-61
2022/04/17 07:10:59;;;;;;;25.00;15.85;;;;;;;;;;5003061;28;20050;-64
2022/04/17 07:13:26;;;;;;;24.77;16.75;;;;;;;;;;5004756;28;20132;-62
2022/04/17 07:15:52;;;;;;;24.88;16.33;;;;;;;;;;5001623;28;20042;-65
2022/04/17 07:18:18;;;;;;;24.55;16.88;;;;;;;;;;5000504;28;20141;-67
2022/04/17 07:20:45;;;;;;;25.88;16.30;;;;;;;;;;5001517;28;20068;-67
2022/04/17 07:23:11;;;;;;;26.25;15.65;;;;;;;;;;4995853;28;20080;-66
2022/04/17 07:25:40;;;;;;;24.20;15.38;;;;;;;;;;5001863;28;20038;-65
2022/04/17 07:28:12;;;;;;;22.33;15.40;;;;;;;;;;5004381;28;20053;-64
2022/04/17 07:30:41;;;;;;;21.02;14.40;;;;;;;;;;5002059;28;20046;-64
2022/04/17 07:33:07;;;;;;;22.88;14.73;;;;;;;;;;5004603;28;20060;-65
2022/04/17 07:35:33;;;;;;;21.48;14.43;;;;;;;;;;5006188;28;20353;-66
2022/04/17 07:37:59;;;;;;;;;;;;;;;;;;5007944;28;20050;-62
2022/04/17 07:40:27;;;;;;;25.80;13.43;;;;;;;;;;5006923;28;20337;-63
2022/04/17 07:42:53;;;;;;;23.10;13.57;;;;;;;;;;5007308;28;20053;-62
2022/04/17 07:45:20;;;;;;;23.50;13.43;;;;;;;;;;5007101;28;20241;-63
2022/04/17 07:47:47;;;;;;;20.50;13.35;;;;;;;;;;5007318;28;20046;-62
2022/04/17 07:50:15;;;;;;;20.13;12.77;;;;;;;;;;5006970;28;20111;-67
2022/04/17 07:52:42;;;;;;;20.23;13.07;;;;;;;;;;5006246;28;20078;-63
2022/04/17 07:55:08;;;;;;;;;;;;;;;;;;5007967;28;20056;-62
2022/04/17 08:00:21;;;;;;;19.67;13.23;;;;;;;;;;5006834;28;20049;-63
2022/04/17 08:02:53;;;;;;;20.38;13.48;;;;;;;;;;5007311;28;20124;-61
2022/04/17 08:05:20;;;;;;;22.35;13.38;;;;;;;;;;5007032;28;20053;-61
2022/04/17 08:07:46;;;;;;;20.30;13.25;;;;;;;;;;5007166;28;20050;-65
2022/04/17 08:10:12;;;;;;;21.60;13.65;;;;;;;;;;5007176;28;20453;-62
2022/04/17 08:12:42;;;;;;;21.40;13.13;;;;;;;;;;5007212;28;20053;-62
2022/04/17 08:15:08;;;;;;;20.60;12.32;;;;;;;;;;5006957;28;20053;-65
2022/04/17 08:17:35;;;;;;;21.15;12.43;;;;;;;;;;5006750;28;20168;-62
2022/04/17 08:20:01;;;;;;;18.45;12.38;;;;;;;;;;5005503;28;20103;-65
2022/04/17 08:22:27;;;;;;;;;;;;;;;;;;5006036;28;20081;-61
2022/04/17 08:24:53;;;;;;;20.15;12.60;;;;;;;;;;5010564;28;20031;-62
2022/04/17 08:27:20;;;;;;;23.27;12.05;;;;;;;;;;5009829;28;20061;-63
2022/04/17 08:29:47;;;;;;;20.50;12.60;;;;;;;;;;5009335;28;20118;-65
2022/04/17 08:32:13;;;;;;;18.58;12.00;;;;;;;;;;5010389;28;20046;-63
2022/04/17 08:34:39;;;;;;;19.90;12.57;;;;;;;;;;5010309;28;20585;-64
2022/04/17 08:37:05;;;;;;;18.75;10.80;;;;;;;;;;5010575;28;20053;-64
2022/04/17 08:39:31;;;;;;;18.98;11.70;;;;;;;;;;5008585;28;20057;-61
2022/04/17 08:41:58;;;;;;;20.17;12.02;;;;;;;;;;5009086;28;20115;-62
2022/04/17 08:44:24;;;;;;;19.20;10.80;;;;;;;;;;5008939;28;20128;-63
2022/04/17 08:46:50;;;;;;;17.77;11.60;;;;;;;;;;5010464;28;20088;-62
2022/04/17 08:49:19;;;;;;;17.08;10.93;;;;;;;;;;5010741;28;20125;-62
2022/04/17 08:51:48;;;;;;;22.70;12.02;;;;;;;;;;5009904;28;20053;-62
2022/04/17 08:54:16;;;;;;;17.70;11.02;;;;;;;;;;5009895;28;20119;-66
2022/04/17 08:56:42;;;;;;;17.73;10.20;;;;;;;;;;5009638;28;20101;-65
2022/04/17 08:59:08;;;;;;;18.70;10.25;;;;;;;;;;5009980;28;20053;-64
2022/04/17 09:01:37;;;;;;;15.75;9.13;;;;;;;;;;5007205;28;20104;-63
2022/04/17 09:04:04;;;;;;;15.85;8.70;;;;;;;;;;5009759;28;20062;-63
2022/04/17 09:06:30;;;;;;;16.55;8.75;;;;;;;;;;5009278;28;20140;-66
2022/04/17 09:09:00;;;;;;;14.75;7.65;;;;;;;;;;5009745;28;20061;-65
2022/04/17 09:11:27;;;;;;;15.65;8.73;;;;;;;;;;5009085;28;20069;-66
2022/04/17 09:13:57;;;;;;;16.60;9.52;;;;;;;;;;5009442;28;20068;-63
2022/04/17 09:16:28;;;;;;;16.20;8.98;;;;;;;;;;5009147;28;20073;-65
2022/04/17 09:18:54;;;;;;;16.85;9.20;;;;;;;;;;5009260;28;20104;-63
2022/04/17 09:21:30;;;;;;;14.35;7.85;;;;;;;;;;5009376;28;20212;-63
2022/04/17 09:24:12;;;;;;;15.93;8.70;;;;;;;;;;5009459;28;20160;-63
2022/04/17 09:26:38;;;;;;;16.50;8.05;;;;;;;;;;5008659;28;20107;-61
2022/04/17 09:29:17;;;;;;;18.52;8.90;;;;;;;;;;5009089;28;20124;-61
2022/04/17 09:31:47;;;;;;;15.90;9.32;;;;;;;;;;5007941;28;20144;-61
2022/04/17 09:34:14;;;;;;;15.95;9.45;;;;;;;;;;5008643;28;20057;-62
2022/04/17 09:36:41;;;;;;;14.77;7.95;;;;;;;;;;5006697;28;20142;-59
2022/04/17 09:39:14;;;;;;;15.18;8.70;;;;;;;;;;5008745;28;20147;-59
2022/04/17 09:42:12;;;;;;;13.40;7.03;;;;;;;;;;5007072;28;20238;-61
2022/04/17 09:44:40;;;;;;;17.50;8.43;;;;;;;;;;5008765;28;20189;-62
2022/04/17 09:47:09;;;;;;;16.33;8.27;;;;;;;;;;5008787;28;20064;-61
2022/04/17 09:49:54;;;;;;;16.50;8.52;;;;;;;;;;5008023;28;20497;-60
2022/04/17 09:52:22;;;;;;;14.15;8.48;;;;;;;;;;5008795;28;20093;-61
2022/04/17 09:54:48;;;;;;;15.52;8.65;;;;;;;;;;4990203;28;20058;-61
2022/04/17 09:57:18;;;;;;;15.65;8.02;;;;;;;;;;5005768;28;20068;-62
2022/04/17 09:59:45;;;;;;;15.57;8.10;;;;;;;;;;5007650;28;20097;-62
2022/04/17 10:02:12;;;;;;;15.82;7.20;;;;;;;;;;5008276;28;20073;-60
2022/04/17 10:04:39;;;;;;;14.07;7.22;;;;;;;;;;5008042;28;20442;-60
2022/04/17 10:07:05;;;;;;;14.93;8.32;;;;;;;;;;5008469;28;20056;-61
2022/04/17 10:09:32;;;;;;;15.55;8.38;;;;;;;;;;5007917;28;20137;-62
2022/04/17 10:12:00;;;;;;;14.88;8.20;;;;;;;;;;5008548;28;20077;-61
2022/04/17 10:14:28;;;;;;;16.98;8.80;;;;;;;;;;5008705;28;20350;-62
2022/04/17 10:16:56;;;;;;;16.10;8.68;;;;;;;;;;5008240;28;20130;-63
2022/04/17 10:19:25;;;;;;;15.55;7.93;;;;;;;;;;5008358;28;20464;-62
2022/04/17 10:21:51;;;;;;;16.70;8.63;;;;;;;;;;5007586;28;20137;-62
2022/04/17 10:24:24;;;;;;;13.98;8.40;;;;;;;;;;5007973;28;20120;-60
2022/04/17 10:26:51;;;;;;;15.80;8.30;;;;;;;;;;5006889;28;20050;-62
2022/04/17 10:29:20;;;;;;;17.33;8.27;;;;;;;;;;5006771;28;20192;-62
2022/04/17 10:32:09;;;;;;;15.00;8.52;;;;;;;;;;5007727;28;20158;-62
2022/04/17 10:34:53;;;;;;;18.98;9.00;;;;;;;;;;5005798;28;20046;-61
2022/04/17 10:37:37;;;;;;;17.05;8.63;;;;;;;;;;5007986;28;20057;-61
2022/04/17 10:40:04;;;;;;;16.13;8.55;;;;;;;;;;5006231;28;20469;-61
2022/04/17 10:42:37;;;;;;;16.63;8.27;;;;;;;;;;5008215;28;20122;-62
2022/04/17 10:45:07;;;;;;;16.55;7.85;;;;;;;;;;5022607;28;20156;-62
2022/04/17 10:47:33;;;;;;;13.05;7.10;;;;;;;;;;5006945;28;20060;-62
2022/04/17 10:50:04;;;;;;;;;;;;;;;;;;5008113;28;20105;-62
2022/04/17 10:52:31;;;;;;;14.23;7.22;;;;;;;;;;5006167;28;19921;-62
2022/04/17 10:55:07;;;;;;;13.18;6.55;;;;;;;;;;5006599;28;20482;-63
2022/04/17 10:57:42;;;;;;;13.80;7.50;;;;;;;;;;5007280;28;20077;-64
2022/04/17 11:00:26;;;;;;;16.05;7.68;;;;;;;;;;5006320;28;20142;-65
2022/04/17 11:02:52;;;;;;;13.45;6.72;;;;;;;;;;5006822;28;20172;-63
2022/04/17 11:06:09;;;;;;;14.60;6.82;;;;;;;;;;5007647;28;20368;-64
2022/04/17 11:08:25;;;;;;;12.20;6.22;;;;;;;;;;5007446;28;20072;-66
2022/04/17 11:10:57;;;;;;;11.90;6.25;;;;;;;;;;5007285;28;20130;-65
2022/04/17 11:13:26;;;;;;;13.85;6.03;;;;;;;;;;5021990;28;20096;-62
2022/04/17 11:15:53;;;;;;;12.23;5.97;;;;;;;;;;5006215;28;20137;-61
2022/04/17 11:18:28;;;;;;;14.45;6.72;;;;;;;;;;5007289;28;20060;-65
2022/04/17 11:20:55;;;;;;;12.77;6.10;;;;;;;;;;5007459;28;20443;-65
2022/04/17 11:23:40;;;;;;;14.60;6.07;;;;;;;;;;5007261;28;20077;-64
2022/04/17 11:26:07;;;;;;;14.07;6.45;;;;;;;;;;5007444;28;20050;-66
2022/04/17 11:28:34;;;;;;;12.27;6.60;;;;;;;;;;5005802;28;20041;-62
2022/04/17 11:31:00;;;;;;;13.93;6.40;;;;;;;;;;5007026;28;20062;-63
2022/04/17 11:33:26;;;;;;;11.52;6.07;;;;;;;;;;5007792;28;20362;-62
2022/04/17 11:35:52;;;;;;;12.73;5.90;;;;;;;;;;5005820;28;20462;-64
2022/04/17 11:38:18;;;;;;;16.27;7.18;;;;;;;;;;5007554;28;20042;-66
2022/04/17 11:40:48;;;;;;;12.52;6.10;;;;;;;;;;5007111;28;20084;-65
2022/04/17 11:43:15;;;;;;;14.70;5.78;;;;;;;;;;5007348;28;20139;-64
2022/04/17 11:45:43;;;;;;;11.40;5.88;;;;;;;;;;5006837;28;20518;-67
2022/04/17 11:48:13;;;;;;;12.25;6.18;;;;;;;;;;5007611;28;20041;-63
2022/04/17 11:50:40;;;;;;;12.30;6.07;;;;;;;;;;5007404;28;20049;-63
2022/04/17 11:53:12;;;;;;;11.93;5.60;;;;;;;;;;5007196;28;20069;-64
2022/04/17 11:55:39;;;;;;;12.43;5.60;;;;;;;;;;5005517;28;20112;-63
2022/04/17 11:58:09;;;;;;;11.48;5.68;;;;;;;;;;5006996;28;20046;-63
2022/04/17 12:00:35;;;;;;;13.23;6.22;;;;;;;;;;5009740;28;20049;-63
2022/04/17 12:03:02;;;;;;;13.55;6.20;;;;;;;;;;5007846;28;20062;-62
2022/04/17 12:05:35;;;;;;;11.75;5.47;;;;;;;;;;5011009;28;20423;-63
2022/04/17 12:08:09;;;;;;;12.30;5.97;;;;;;;;;;5010123;28;20069;-63
2022/04/17 12:10:40;;;;;;;15.05;6.82;;;;;;;;;;5009168;28;20050;-62
2022/04/17 12:13:17;;;;;;;13.02;6.00;;;;;;;;;;5008820;28;20050;-63
2022/04/17 12:15:43;;;;;;;18.27;6.05;;;;;;;;;;5010723;28;20125;-66
2022/04/17 12:18:10;;;;;;;16.13;6.15;;;;;;;;;;5009872;28;20046;-67
2022/04/17 12:20:38;;;;;;;11.75;5.45;;;;;;;;;;5010902;28;20208;-65
2022/04/17 12:23:04;;;;;;;12.93;5.90;;;;;;;;;;5024799;28;20062;-68
2022/04/17 12:25:30;;;;;;;12.75;5.88;;;;;;;;;;5011201;28;20052;-64
2022/04/17 12:27:56;;;;;;;;;;;;;;;;;;5009223;28;20148;-66
2022/04/17 12:30:26;;;;;;;13.55;6.90;;;;;;;;;;5010799;28;19925;-66
2022/04/17 12:32:59;;;;;;;13.32;5.68;;;;;;;;;;5010266;28;20050;-66
2022/04/17 12:35:26;;;;;;;13.93;6.35;;;;;;;;;;5010385;28;20058;-65
2022/04/17 12:38:10;;;;;;;11.95;6.57;;;;;;;;;;5010331;28;20133;-65
2022/04/17 12:40:43;;;;;;;14.55;6.90;;;;;;;;;;5010328;28;20121;-62
2022/04/17 12:43:19;;;;;;;14.18;6.95;;;;;;;;;;5009925;28;20054;-63
2022/04/17 12:45:54;;;;;;;12.82;6.35;;;;;;;;;;5010454;28;20193;-63
2022/04/17 12:48:24;;;;;;;13.23;7.15;;;;;;;;;;5008740;28;20118;-62
2022/04/17 12:51:04;;;;;;;13.82;6.97;;;;;;;;;;5009813;28;20050;-62
2022/04/17 12:53:37;;;;;;;12.50;6.78;;;;;;;;;;5010211;28;20046;-67
2022/04/17 12:56:03;;;;;;;14.15;7.40;;;;;;;;;;5009882;28;20101;-66
2022/04/17 12:58:30;;;;;;;14.90;7.80;;;;;;;;;;5009200;28;20351;-64
2022/04/17 13:00:59;;;;;;;15.23;7.00;;;;;;;;;;5009180;28;20470;-67
2022/04/17 13:03:35;;;;;;;13.88;7.07;;;;;;;;;;5010421;28;20130;-66
2022/04/17 13:06:02;;;;;;;12.88;6.55;;;;;;;;;;5007527;28;20159;-66
2022/04/17 13:08:28;;;;;;;13.63;7.38;;;;;;;;;;5009682;28;20050;-65
2022/04/17 13:10:57;;;;;;;14.15;7.10;;;;;;;;;;5008244;28;20157;-66
2022/04/17 13:13:36;;;;;;;14.27;6.78;;;;;;;;;;5025122;28;20062;-64
2022/04/17 13:16:03;;;;;;;13.35;6.90;;;;;;;;;;5008593;28;20128;-67
2022/04/17 13:18:31;;;;;;;16.38;7.18;;;;;;;;;;5010577;28;20057;-65
2022/04/17 13:20:58;;;;;;;12.80;6.93;;;;;;;;;;5010010;28;20132;-62
2022/04/17 13:23:24;;;;;;;14.55;7.15;;;;;;;;;;5025539;28;20352;-65
2022/04/17 13:25:51;;;;;;;14.57;7.65;;;;;;;;;;5009709;28;20426;-63
2022/04/17 13:28:17;;;;;;;18.55;7.68;;;;;;;;;;5010217;28;20053;-63
2022/04/17 13:30:43;;;;;;;13.48;7.22;;;;;;;;;;5010408;28;20133;-64
2022/04/17 13:33:09;;;;;;;13.15;7.60;;;;;;;;;;5009815;28;20088;-63
2022/04/17 13:35:35;;;;;;;16.27;7.55;;;;;;;;;;5010381;28;20042;-66
2022/04/17 13:38:13;;;;;;;14.43;7.00;;;;;;;;;;5009804;28;20050;-63
2022/04/17 13:40:40;;;;;;;13.27;7.07;;;;;;;;;;5008980;28;20129;-65
2022/04/17 13:43:06;;;;;;;;;;;;;;;;;;5010285;28;20054;-64
2022/04/17 13:45:34;;;;;;;13.25;6.88;;;;;;;;;;5010367;28;19948;-65
2022/04/17 13:48:00;;;;;;;12.88;6.63;;;;;;;;;;5009485;28;20128;-61
2022/04/17 13:50:26;;;;;;;;;;;;;;;;;;5008671;28;20477;-64
2022/04/17 13:52:52;;;;;;;12.50;6.53;;;;;;;;;;5008566;28;19979;-64
2022/04/17 13:55:20;;;;;;;11.93;6.25;;;;;;;;;;5009061;28;20130;-65
2022/04/17 13:57:46;;;;;;;13.55;6.53;;;;;;;;;;4992523;28;20054;-67
2022/04/17 14:00:12;;;;;;;;;;;;;;;;;;5009624;28;20355;-65
2022/04/17 14:02:38;;;;;;;14.27;6.63;;;;;;;;;;5006727;28;19932;-63
2022/04/17 14:05:04;;;;;;;14.60;6.57;;;;;;;;;;5008537;28;20060;-63
2022/04/17 14:07:32;;;;;;;13.55;6.50;;;;;;;;;;5009407;28;20200;-67
2022/04/17 14:10:00;;;;;;;13.18;6.15;;;;;;;;;;5009168;28;20054;-68
2022/04/17 14:12:26;;;;;;;12.50;6.20;;;;;;;;;;5009498;28;20048;-66
2022/04/17 14:14:55;;;;;;;21.30;6.50;;;;;;;;;;5009338;28;20046;-64
2022/04/17 14:17:21;;;;;;;15.15;6.43;;;;;;;;;;5006932;28;20072;-64
2022/04/17 14:19:47;;;;;;;;;;;;;;;;;;5009227;28;20125;-63
2022/04/17 14:22:13;;;;;;;13.43;6.45;;;;;;;;;;5008792;28;19932;-67
2022/04/17 14:24:40;;;;;;;13.98;6.45;;;;;;;;;;5008925;28;20114;-66
2022/04/17 14:27:07;;;;;;;15.70;7.03;;;;;;;;;;5007361;28;20081;-66
2022/04/17 14:29:33;;;;;;;13.90;7.20;;;;;;;;;;5008776;28;20455;-63
2022/04/17 14:31:59;;;;;;;14.20;7.13;;;;;;;;;;5007732;28;20050;-64
2022/04/17 14:34:25;;;;;;;14.88;7.05;;;;;;;;;;5006982;28;20343;-64
2022/04/17 14:36:51;;;;;;;14.15;7.63;;;;;;;;;;5007460;28;20361;-67
2022/04/17 14:39:17;;;;;;;13.40;6.70;;;;;;;;;;5008777;28;20061;-66
2022/04/17 14:41:44;;;;;;;15.18;6.97;;;;;;;;;;5007648;28;20074;-63
2022/04/17 14:44:11;;;;;;;12.63;6.68;;;;;;;;;;5007787;28;20112;-64
2022/04/17 14:46:38;;;;;;;12.90;6.88;;;;;;;;;;5008756;28;20382;-64
2022/04/17 14:49:04;;;;;;;;;;;;;;;;;;5007002;28;20181;-65
2022/04/17 14:51:30;;;;;;;15.90;7.25;;;;;;;;;;5008570;28;20390;-63